Pine Ridge, Mississippi
Current Conditions -  °F | °C
As of 5:53 PM on Thursday 27 Nov 2014 (Local Time) from KHBG Reporting Station
Clear Clear  
Wind Chill: 46°   Ceiling: Unl
Heat Index: 48°   Visibility: 10mi
Dew Point: 32°   Wind: 5mph
Humidity: 54%   Direction: 340°NNW
Pressure: 30.45"   Gusts: NA
Location:  31.1558°N, 89.5311°W
Report Text: KHBG 272353Z AUTO 34004KT 10SM CLR 09/00 A3045 RMK AO2 SLP310 T00890000 10139 20078 51014
Loading
Personal Weather Stations






























Interactive Weather Map New forecast layout! Learn more

10-Day Weather Forecast

Advertisements
Track Severe Weather on mobile